Time;durP1;ratioP1;P1;durP2;ratioP2;P2;SDS_P1;SDS_P2;PMS_P1;PMS_P2;Temp;Humidity;BMP_temperature;BMP_pressure;BME280_temperature;BME280_humidity;BME280_pressure;Samples;Min_cycle;Max_cycle;Signal;HPM_P1;HPM_P2
2023/07/03 00:00:59;;;;;;;44.87;19.77;;;;;;;28.20;73.27;100944.28;5061703;28;69888;-46
2023/07/03 00:03:31;;;;;;;38.17;17.15;;;;;;;28.24;75.66;100934.75;5056447;28;65623;-46
2023/07/03 00:06:02;;;;;;;37.57;18.03;;;;;;;28.35;73.73;100950.38;5042336;28;68912;-46
2023/07/03 00:08:33;;;;;;;34.90;16.80;;;;;;;28.32;76.00;100931.88;5060878;28;66991;-45
2023/07/03 00:11:05;;;;;;;37.42;17.15;;;;;;;28.39;77.24;100948.94;5045496;28;69844;-43
2023/07/03 00:13:37;;;;;;;34.63;17.40;;;;;;;28.38;79.15;100947.25;5062745;28;65793;-42
2023/07/03 00:16:08;;;;;;;24.43;16.27;;;;;;;28.33;80.83;100949.72;5057157;28;69969;-44
2023/07/03 00:18:39;;;;;;;29.50;17.00;;;;;;;28.45;77.35;100948.16;5062663;28;66511;-45
2023/07/03 00:21:11;;;;;;;34.17;18.65;;;;;;;28.48;78.30;100947.75;5054154;28;69644;-46
2023/07/03 00:23:42;;;;;;;26.08;18.85;;;;;;;28.35;78.83;100923.38;5057533;28;66113;-46
2023/07/03 00:26:13;;;;;;;29.02;18.58;;;;;;;28.60;76.38;100961.47;5057332;28;69901;-43
2023/07/03 00:28:44;;;;;;;31.95;18.38;;;;;;;28.69;75.06;100960.25;5059165;28;66732;-47
2023/07/03 00:31:16;;;;;;;22.43;16.67;;;;;;;28.68;73.71;100963.19;5042980;28;70157;-48
2023/07/03 00:33:47;;;;;;;17.60;14.52;;;;;;;28.64;72.70;100951.97;5063272;28;66485;-46
2023/07/03 00:36:18;;;;;;;17.50;14.60;;;;;;;28.77;71.90;100974.63;5060166;28;69926;-46
2023/07/03 00:38:49;;;;;;;19.02;14.35;;;;;;;28.81;71.76;100974.00;5061231;28;66469;-46
2023/07/03 00:41:20;;;;;;;17.83;13.00;;;;;;;28.81;71.40;100973.19;5042947;28;69927;-46
2023/07/03 00:43:52;;;;;;;15.70;14.10;;;;;;;28.61;71.00;100935.31;5061982;28;66285;-47
2023/07/03 00:46:25;;;;;;;15.00;13.43;;;;;;;28.61;70.83;100927.22;5056141;28;69821;-47
2023/07/03 00:48:57;;;;;;;17.92;13.35;;;;;;;28.70;70.81;100939.53;5061553;28;65480;-45
2023/07/03 00:51:28;;;;;;;14.77;13.23;;;;;;;28.86;70.57;100958.03;5059148;28;69308;-45
2023/07/03 00:54:00;;;;;;;14.25;12.75;;;;;;;28.92;69.89;100959.09;5061322;28;66088;-46
2023/07/03 00:56:31;;;;;;;13.68;12.07;;;;;;;28.89;70.39;100954.94;5062024;28;69901;-47
2023/07/03 00:59:04;;;;;;;14.63;13.23;;;;;;;28.94;70.17;100963.22;5043025;28;65359;-45
2023/07/03 01:01:44;;;;;;;13.77;12.30;;;;;;;28.96;69.88;100963.84;5062722;28;70427;-46
2023/07/03 01:04:24;;;;;;;13.60;12.18;;;;;;;28.17;69.81;100837.66;5042312;28;65554;-47
2023/07/03 01:07:01;;;;;;;13.40;11.70;;;;;;;28.39;69.48;100869.84;5058171;28;70403;-48
2023/07/03 01:10:04;;;;;;;13.55;12.20;;;;;;;28.95;69.57;100981.09;5057678;28;65361;-46
2023/07/03 01:12:41;;;;;;;15.00;12.52;;;;;;;28.43;69.63;100874.66;5060354;28;69603;-44
2023/07/03 01:15:17;;;;;;;14.23;12.73;;;;;;;28.35;69.22;100861.34;5060593;28;65808;-47
2023/07/03 01:17:52;;;;;;;14.60;13.13;;;;;;;29.10;69.22;100989.03;5060403;28;70706;-46
2023/07/03 01:20:26;;;;;;;14.85;13.40;;;;;;;28.44;68.93;100872.81;5059214;28;65820;-46
2023/07/03 01:23:44;;;;;;;13.90;12.70;;;;;;;28.96;69.02;100982.75;5060983;28;71986;-45
2023/07/03 01:26:16;;;;;;;13.70;12.40;;;;;;;29.14;68.98;100975.94;5035238;28;66312;-45
2023/07/03 01:28:54;;;;;;;13.70;12.30;;;;;;;28.62;68.60;100883.03;5064781;28;68460;-45
2023/07/03 01:31:29;;;;;;;13.57;12.30;;;;;;;29.18;69.11;100969.94;5037624;28;64235;-46
2023/07/03 01:34:02;;;;;;;14.07;12.60;;;;;;;29.26;68.90;100976.19;5057306;28;70545;-46
2023/07/03 01:36:35;;;;;;;14.02;12.65;;;;;;;29.02;68.61;100931.66;5056030;28;66523;-47
2023/07/03 01:39:07;;;;;;;15.20;12.07;;;;;;;29.28;68.63;100979.50;5055466;28;70558;-46
2023/07/03 01:41:39;;;;;;;14.95;12.98;;;;;;;29.23;69.01;100966.63;5056269;28;67093;-47
2023/07/03 01:44:11;;;;;;;15.40;11.98;;;;;;;29.32;68.49;100978.06;5056819;28;70445;-46
2023/07/03 01:46:44;;;;;;;13.93;12.50;;;;;;;29.34;68.75;100979.50;5037807;28;65610;-46
2023/07/03 01:49:16;;;;;;;;;;;;;;;28.99;69.61;100975.28;5054309;28;70043;-46
2023/07/03 01:51:58;;;;;;;12.65;11.35;;;;;;;29.34;68.27;100990.31;5051080;28;67343;-45
2023/07/03 01:54:43;;;;;;;14.85;11.80;;;;;;;28.80;68.61;100891.34;5055290;28;69962;-46
2023/07/03 01:57:23;;;;;;;15.80;11.32;;;;;;;28.94;68.01;100913.78;5057905;28;66722;-47
2023/07/03 01:59:55;;;;;;;12.23;11.00;;;;;;;29.46;68.51;100987.00;5033989;28;70422;-47
2023/07/03 02:02:30;;;;;;;13.57;11.63;;;;;;;29.47;68.56;100988.66;5039448;28;66338;-46
2023/07/03 02:05:18;;;;;;;14.50;10.95;;;;;;;29.37;68.66;100979.09;5040115;28;70467;-46
2023/07/03 02:07:55;;;;;;;10.77;9.93;;;;;;;29.10;68.39;100913.41;5054620;28;66108;-46
2023/07/03 02:10:27;;;;;;;11.95;10.63;;;;;;;29.57;68.29;100983.66;5031368;28;70037;-47
2023/07/03 02:12:58;;;;;;;11.38;10.38;;;;;;;29.60;68.01;100988.66;5041305;28;67478;-47
2023/07/03 02:15:30;;;;;;;10.98;9.98;;;;;;;29.56;67.98;100981.97;5053323;28;69392;-44
2023/07/03 02:18:01;;;;;;;11.43;10.27;;;;;;;29.65;67.72;100988.06;5059416;28;66038;-49
2023/07/03 02:20:33;;;;;;;13.60;10.65;;;;;;;29.69;67.97;100992.81;5039196;28;69802;-46
2023/07/03 02:23:04;;;;;;;10.82;9.93;;;;;;;29.70;68.07;100994.50;5038824;28;66314;-46
2023/07/03 02:25:46;;;;;;;10.52;9.68;;;;;;;29.75;68.19;100997.38;5055300;28;70166;-45
2023/07/03 02:28:19;;;;;;;10.43;9.43;;;;;;;29.64;67.91;100980.97;5036731;28;66669;-46
2023/07/03 02:30:50;;;;;;;10.10;9.20;;;;;;;29.63;68.11;100974.75;5054862;28;69632;-45
2023/07/03 02:33:21;;;;;;;10.23;9.23;;;;;;;29.82;68.17;100997.41;5059348;28;66315;-46
2023/07/03 02:35:52;;;;;;;11.40;9.52;;;;;;;29.86;67.85;100992.38;5060431;28;70022;-45
2023/07/03 02:38:24;;;;;;;8.52;7.93;;;;;;;29.88;67.70;100984.91;5054159;28;65577;-46
2023/07/03 02:40:55;;;;;;;9.60;8.70;;;;;;;29.92;67.71;100991.53;5059709;28;68328;-45
2023/07/03 02:43:26;;;;;;;10.25;8.20;;;;;;;29.94;67.94;100981.34;5059370;28;65715;-49
2023/07/03 02:46:06;;;;;;;8.97;8.20;;;;;;;29.35;67.76;100889.28;5038120;28;69928;-46
2023/07/03 02:48:37;;;;;;;8.90;8.13;;;;;;;29.71;67.44;100936.69;5060351;28;66715;-45
2023/07/03 02:51:10;;;;;;;9.25;8.50;;;;;;;30.04;67.83;100979.88;5037763;28;69526;-46
2023/07/03 02:53:43;;;;;;;9.00;8.25;;;;;;;29.65;67.61;100921.31;5059406;28;66456;-45
2023/07/03 02:56:17;;;;;;;8.80;8.05;;;;;;;30.10;67.96;100983.59;5049421;28;70434;-46
2023/07/03 02:58:50;;;;;;;9.00;8.38;;;;;;;30.05;67.33;100969.88;5040939;28;65387;-46
2023/07/03 03:01:27;;;;;;;8.52;7.82;;;;;;;30.09;67.55;100973.81;5039100;28;70001;-46
2023/07/03 03:03:59;;;;;;;8.45;7.75;;;;;;;30.16;67.35;100979.22;5046159;28;66457;-46
2023/07/03 03:06:33;;;;;;;9.35;8.05;;;;;;;30.10;67.75;100967.38;5042914;28;69750;-46
2023/07/03 03:09:05;;;;;;;8.88;8.00;;;;;;;30.23;67.63;100983.59;5062880;28;66281;-46
2023/07/03 03:11:37;;;;;;;8.70;7.90;;;;;;;30.25;67.69;100976.06;5039209;28;69673;-44
2023/07/03 03:14:10;;;;;;;8.40;7.78;;;;;;;30.25;67.12;100973.38;5059150;28;66994;-45
2023/07/03 03:16:41;;;;;;;13.07;8.25;;;;;;;30.27;67.48;100970.47;5056102;28;70132;-46
2023/07/03 03:19:13;;;;;;;8.57;7.97;;;;;;;30.27;67.10;100973.16;5056670;28;66748;-45
2023/07/03 03:21:44;;;;;;;9.05;7.97;;;;;;;30.33;67.73;100971.47;5058610;28;70423;-47
2023/07/03 03:24:15;;;;;;;8.00;7.40;;;;;;;30.36;67.30;100971.88;5065534;28;66914;-45
2023/07/03 03:26:46;;;;;;;8.82;8.07;;;;;;;30.37;67.18;100978.09;5057516;28;69351;-46
2023/07/03 03:29:18;;;;;;;8.57;8.00;;;;;;;30.37;67.05;100972.69;5071071;28;66358;-46
2023/07/03 03:31:49;;;;;;;8.77;7.95;;;;;;;30.22;67.05;100941.31;5044625;28;70229;-46
2023/07/03 03:34:20;;;;;;;8.53;7.83;;;;;;;30.28;66.78;100947.75;5059095;28;66205;-47
2023/07/03 03:36:52;;;;;;;7.70;7.17;;;;;;;30.39;67.24;100959.78;5058858;28;69919;-46
2023/07/03 03:39:23;;;;;;;7.70;7.20;;;;;;;30.49;67.24;100971.00;5044104;28;65709;-45
2023/07/03 03:41:54;;;;;;;8.02;7.53;;;;;;;30.49;67.14;100969.09;5049152;28;70042;-46
2023/07/03 03:44:26;;;;;;;6.88;6.38;;;;;;;30.52;67.13;100970.56;5056441;28;65910;-46
2023/07/03 03:46:57;;;;;;;8.07;7.28;;;;;;;30.17;66.73;100900.53;5058402;28;69707;-46
2023/07/03 03:49:29;;;;;;;6.93;6.30;;;;;;;30.55;66.90;100956.59;5059117;28;66267;-46
2023/07/03 03:52:01;;;;;;;7.45;6.85;;;;;;;30.59;66.74;100954.28;5047163;28;70253;-46
2023/07/03 03:54:32;;;;;;;7.30;6.70;;;;;;;30.59;66.88;100949.72;5057178;28;66803;-46
2023/07/03 03:57:07;;;;;;;6.95;6.45;;;;;;;30.65;66.35;100956.97;5059182;28;70338;-46
2023/07/03 03:59:38;;;;;;;6.85;6.30;;;;;;;30.64;66.90;100947.16;5057051;28;66216;-46
2023/07/03 04:02:10;;;;;;;6.32;5.88;;;;;;;30.67;66.89;100951.31;5041550;28;69964;-46
2023/07/03 04:04:43;;;;;;;7.10;6.50;;;;;;;30.67;66.57;100938.63;5054980;28;67231;-45
2023/07/03 04:07:15;;;;;;;7.38;6.63;;;;;;;30.47;66.72;100906.22;5058424;28;69589;-46
2023/07/03 04:09:46;;;;;;;6.95;6.35;;;;;;;29.71;66.55;100774.47;5055512;28;66204;-47
2023/07/03 04:12:18;;;;;;;6.43;5.83;;;;;;;30.73;66.13;100935.03;5057337;28;70630;-46
2023/07/03 04:14:49;;;;;;;6.40;6.00;;;;;;;30.59;66.61;100905.53;5057199;28;66169;-46
2023/07/03 04:17:20;;;;;;;7.47;6.50;;;;;;;30.72;66.47;100922.53;5062418;28;70117;-46
2023/07/03 04:19:51;;;;;;;6.20;5.80;;;;;;;30.74;66.09;100922.31;5056990;28;66587;-47
2023/07/03 04:22:23;;;;;;;7.47;6.40;;;;;;;30.70;66.28;100905.69;5056349;28;69846;-47
2023/07/03 04:24:54;;;;;;;6.47;5.97;;;;;;;30.84;66.24;100916.44;5045210;28;66140;-46
2023/07/03 04:27:26;;;;;;;6.43;5.93;;;;;;;30.83;66.25;100914.78;5059814;28;70155;-46
2023/07/03 04:29:57;;;;;;;6.18;5.78;;;;;;;30.88;66.39;100915.78;5057957;28;65468;-45
2023/07/03 04:32:28;;;;;;;6.07;5.57;;;;;;;30.91;66.54;100912.66;5062393;28;70982;-46
2023/07/03 04:35:00;;;;;;;6.00;5.57;;;;;;;30.91;66.61;100904.50;5055980;28;66533;-46
2023/07/03 04:37:31;;;;;;;;;;;;;;;30.64;67.51;100909.25;5057600;28;70106;-47
2023/07/03 04:40:03;;;;;;;5.75;5.35;;;;;;;30.95;66.27;100902.19;5057861;28;65805;-45
2023/07/03 04:42:34;;;;;;;;;;;;;;;30.67;67.08;100897.16;5050523;28;70333;-47
2023/07/03 04:45:08;;;;;;;5.93;5.53;;;;;;;30.91;66.26;100882.03;5061885;28;65765;-46
2023/07/03 04:47:39;;;;;;;5.70;5.30;;;;;;;31.03;66.22;100888.38;5058710;28;70734;-46
2023/07/03 04:50:17;;;;;;;6.55;6.03;;;;;;;30.45;66.09;100786.53;5059037;28;65298;-46
2023/07/03 04:52:49;;;;;;;5.47;5.07;;;;;;;31.07;65.86;100886.91;5059736;28;69732;-47
2023/07/03 04:55:21;;;;;;;4.85;4.38;;;;;;;31.10;66.23;100883.75;5060254;28;66231;-47
2023/07/03 04:57:52;;;;;;;6.18;5.68;;;;;;;31.11;65.85;100877.25;5044621;28;70329;-46
2023/07/03 05:00:24;;;;;;;5.23;4.80;;;;;;;31.13;66.01;100880.59;5061430;28;65449;-46
2023/07/03 05:02:59;;;;;;;5.72;5.22;;;;;;;31.15;65.95;100889.31;5058876;28;69357;-47
2023/07/03 05:05:30;;;;;;;5.28;4.88;;;;;;;31.20;65.68;100874.25;5053022;28;66501;-46
2023/07/03 05:08:02;;;;;;;5.78;4.90;;;;;;;31.16;65.76;100861.16;5058506;28;70271;-47
2023/07/03 05:10:33;;;;;;;5.18;4.68;;;;;;;31.20;65.75;100858.84;5060825;28;67415;-46
2023/07/03 05:13:04;;;;;;;4.53;4.20;;;;;;;31.21;65.53;100862.41;5060488;28;70073;-47
2023/07/03 05:15:35;;;;;;;5.40;4.85;;;;;;;31.29;65.67;100867.53;5060565;28;65364;-47
2023/07/03 05:18:06;;;;;;;5.20;4.90;;;;;;;31.19;65.50;100851.75;5061018;28;69932;-47
2023/07/03 05:20:38;;;;;;;5.00;4.60;;;;;;;31.25;65.63;100847.34;5062075;28;66141;-46
2023/07/03 05:23:09;;;;;;;5.17;4.23;;;;;;;31.22;65.26;100839.66;5059306;28;69634;-46
2023/07/03 05:25:40;;;;;;;4.32;4.03;;;;;;;31.35;65.33;100853.06;5061767;28;66644;-47
2023/07/03 05:28:12;;;;;;;5.55;4.40;;;;;;;31.35;65.61;100850.38;5061981;28;70052;-47
2023/07/03 05:30:43;;;;;;;4.95;4.03;;;;;;;31.38;65.79;100842.63;5058231;28;66612;-46
2023/07/03 05:33:15;;;;;;;4.03;3.72;;;;;;;31.45;65.21;100826.28;5060118;28;70556;-46
2023/07/03 05:35:46;;;;;;;4.40;4.10;;;;;;;31.38;65.24;100812.00;5061306;28;66099;-46
2023/07/03 05:38:23;;;;;;;4.70;4.32;;;;;;;31.51;65.08;100822.69;5062435;28;69532;-46
2023/07/03 05:40:54;;;;;;;5.30;4.13;;;;;;;31.51;65.20;100817.28;5060972;28;66460;-47
2023/07/03 05:43:26;;;;;;;4.05;3.75;;;;;;;31.54;65.50;100816.81;5060868;28;69983;-47
2023/07/03 05:45:57;;;;;;;;;;;;;;;31.28;65.73;100817.06;5040417;28;65763;-46
2023/07/03 05:48:28;;;;;;;4.35;3.95;;;;;;;31.56;65.21;100825.53;5060862;28;69495;-47
2023/07/03 05:50:59;;;;;;;4.22;3.92;;;;;;;31.60;65.04;100810.50;5055593;28;66927;-47
2023/07/03 05:53:31;;;;;;;4.47;4.07;;;;;;;31.62;64.82;100807.53;5057050;28;69150;-48
2023/07/03 05:56:02;;;;;;;3.93;3.63;;;;;;;31.29;65.18;100737.44;5057949;28;66956;-47
2023/07/03 05:58:33;;;;;;;4.60;4.00;;;;;;;31.64;64.91;100788.34;5053616;28;69276;-46
2023/07/03 06:01:04;;;;;;;3.20;3.00;;;;;;;31.61;64.72;100778.78;5055841;28;66266;-48
2023/07/03 06:03:36;;;;;;;4.72;2.83;;;;;;;31.76;64.84;100797.34;5056046;28;69252;-46
2023/07/03 06:06:08;;;;;;;3.60;3.30;;;;;;;31.62;64.71;100769.56;5058518;28;67113;-45
2023/07/03 06:08:40;;;;;;;3.38;3.17;;;;;;;31.85;64.74;100796.00;5056903;28;69544;-46
2023/07/03 06:11:12;;;;;;;3.38;3.17;;;;;;;31.82;64.84;100791.84;5057107;28;65742;-46
2023/07/03 06:13:43;;;;;;;3.90;3.45;;;;;;;31.88;64.50;100795.53;5059446;28;70248;-46
2023/07/03 06:16:14;;;;;;;4.93;3.33;;;;;;;31.84;64.47;100778.03;5058821;28;66112;-46
2023/07/03 06:18:45;;;;;;;4.20;3.13;;;;;;;31.93;64.53;100787.56;5058664;28;70263;-46
2023/07/03 06:21:16;;;;;;;3.00;2.80;;;;;;;31.97;64.62;100783.31;5058836;28;66805;-47
2023/07/03 06:23:48;;;;;;;3.13;2.93;;;;;;;32.01;64.55;100795.41;5059587;28;69997;-46
2023/07/03 06:26:19;;;;;;;3.15;2.95;;;;;;;32.03;64.19;100789.72;5056641;28;66474;-46
2023/07/03 06:28:50;;;;;;;3.40;3.10;;;;;;;32.08;64.29;100780.91;5059341;28;69187;-47
2023/07/03 06:31:21;;;;;;;3.28;2.97;;;;;;;32.11;64.16;100780.44;5058261;28;65798;-46
2023/07/03 06:33:53;;;;;;;2.80;2.58;;;;;;;32.14;64.04;100779.97;5057236;28;70749;-46
2023/07/03 06:36:25;;;;;;;3.22;2.92;;;;;;;32.15;63.92;100763.47;5060058;28;64970;-47
2023/07/03 06:38:56;;;;;;;;;;;;;;;31.96;64.74;100759.97;5059590;28;69231;-46
2023/07/03 06:41:29;;;;;;;2.65;2.45;;;;;;;31.85;63.80;100700.25;5059410;28;66506;-47
2023/07/03 06:44:03;;;;;;;3.40;3.10;;;;;;;32.27;63.92;100756.16;5055575;28;70127;-47
2023/07/03 06:46:35;;;;;;;2.97;2.78;;;;;;;32.32;63.53;100758.19;5061876;28;66285;-47
2023/07/03 06:49:06;;;;;;;4.30;2.70;;;;;;;32.35;63.62;100762.34;5062109;28;69847;-46
2023/07/03 06:51:38;;;;;;;2.70;2.50;;;;;;;32.40;63.53;100757.00;5061713;28;65508;-47
2023/07/03 06:54:09;;;;;;;3.28;2.95;;;;;;;32.44;63.25;100745.44;5061824;28;69279;-46
2023/07/03 06:56:40;;;;;;;2.60;2.40;;;;;;;32.49;63.47;100748.31;5060260;28;65480;-46
2023/07/03 06:59:12;;;;;;;2.77;2.57;;;;;;;32.47;63.18;100734.16;5061979;28;69756;-45
2023/07/03 07:01:43;;;;;;;3.00;2.80;;;;;;;32.57;63.19;100727.31;5057410;28;66962;-45
2023/07/03 07:04:15;;;;;;;4.35;2.47;;;;;;;32.19;63.17;100655.25;5039275;28;69814;-47
2023/07/03 07:06:48;;;;;;;2.85;2.65;;;;;;;32.65;63.05;100708.78;5058554;28;66667;-46
2023/07/03 07:09:20;;;;;;;2.53;2.30;;;;;;;32.31;62.87;100634.38;5061008;28;69647;-46
2023/07/03 07:11:51;;;;;;;2.60;2.22;;;;;;;32.67;63.05;100686.81;5052416;28;66128;-45
2023/07/03 07:14:22;;;;;;;2.60;2.30;;;;;;;32.72;62.88;100681.50;5058404;28;69980;-48
2023/07/03 07:16:53;;;;;;;2.53;2.33;;;;;;;32.74;62.75;100670.41;5038359;28;66729;-48
2023/07/03 07:19:25;;;;;;;2.50;2.30;;;;;;;32.83;62.76;100671.69;5063825;28;70045;-48
2023/07/03 07:21:56;;;;;;;2.67;2.40;;;;;;;32.86;62.41;100666.59;5059968;28;66469;-45
2023/07/03 07:24:28;;;;;;;2.43;2.23;;;;;;;32.88;62.74;100656.31;5064307;28;69366;-46
2023/07/03 07:27:00;;;;;;;2.50;2.30;;;;;;;32.90;62.38;100650.63;5058746;28;66122;-45
2023/07/03 07:29:32;;;;;;;5.25;2.45;;;;;;;32.80;62.56;100629.53;5061382;28;70710;-46
2023/07/03 07:32:03;;;;;;;2.33;2.13;;;;;;;32.91;62.49;100636.81;5066083;28;66485;-46
2023/07/03 07:34:34;;;;;;;2.40;2.20;;;;;;;32.96;62.25;100627.09;5038394;28;70590;-46
2023/07/03 07:37:06;;;;;;;2.28;2.08;;;;;;;32.79;62.27;100595.28;5059368;28;65867;-47
2023/07/03 07:39:42;;;;;;;2.67;1.90;;;;;;;32.94;62.24;100608.34;5058899;28;70659;-46
2023/07/03 07:42:13;;;;;;;2.08;1.88;;;;;;;32.74;62.17;100559.88;5071221;28;66034;-47
2023/07/03 07:44:48;;;;;;;2.33;2.13;;;;;;;32.63;61.89;100539.00;5069929;28;70041;-46
2023/07/03 07:47:20;;;;;;;2.30;1.90;;;;;;;33.08;61.90;100598.06;5063049;28;66584;-47
2023/07/03 07:49:51;;;;;;;2.03;1.93;;;;;;;33.06;62.20;100589.31;5056422;28;70602;-46
2023/07/03 07:52:23;;;;;;;2.97;1.83;;;;;;;33.11;61.73;100586.69;5057439;28;66567;-46
2023/07/03 07:54:56;;;;;;;2.55;2.17;;;;;;;33.07;61.65;100571.94;5061754;28;70537;-48
2023/07/03 07:57:30;;;;;;;5.07;2.42;;;;;;;33.15;61.73;100583.25;5056774;28;65780;-45
2023/07/03 08:00:03;;;;;;;2.92;1.63;;;;;;;33.17;61.76;100580.28;5056184;28;70313;-46
2023/07/03 08:02:40;;;;;;;2.47;1.83;;;;;;;33.06;61.80;100562.13;5061923;28;66166;-46
2023/07/03 08:05:11;;;;;;;4.80;1.75;;;;;;;33.20;61.43;100579.78;5058801;28;69629;-47
2023/07/03 08:07:42;;;;;;;2.20;2.00;;;;;;;33.21;61.62;100581.47;5057754;28;65436;-47
2023/07/03 08:10:14;;;;;;;1.85;1.65;;;;;;;33.20;61.64;100577.06;5059054;28;70908;-46
2023/07/03 08:12:46;;;;;;;3.42;1.90;;;;;;;33.24;61.65;100580.13;5060131;28;66065;-47
2023/07/03 08:15:17;;;;;;;;;;;;;;;33.04;61.90;100570.56;5058757;28;70163;-46
2023/07/03 08:17:48;;;;;;;3.65;1.52;;;;;;;33.24;61.90;100572.81;5059529;28;65888;-47
2023/07/03 08:20:19;;;;;;;3.78;2.13;;;;;;;33.10;61.89;100541.56;5050741;28;69191;-46
2023/07/03 08:22:50;;;;;;;2.15;1.95;;;;;;;33.28;61.76;100562.28;5057406;28;66297;-47
2023/07/03 08:25:22;;;;;;;3.33;2.17;;;;;;;33.28;61.61;100557.66;5057957;28;70081;-47
2023/07/03 08:27:53;;;;;;;2.13;1.90;;;;;;;33.28;61.28;100560.38;5064959;28;66318;-47
2023/07/03 08:30:28;;;;;;;2.25;2.05;;;;;;;33.32;61.49;100561.56;5042308;28;44121;-46
2023/07/03 08:32:59;;;;;;;2.30;2.00;;;;;;;33.32;61.45;100556.13;5060298;28;65315;-47
2023/07/03 08:35:31;;;;;;;2.80;1.95;;;;;;;33.25;61.78;100544.56;5065883;28;70561;-47
2023/07/03 08:38:05;;;;;;;2.38;1.88;;;;;;;33.29;61.50;100544.88;5062728;28;66481;-47
2023/07/03 08:40:37;;;;;;;2.13;1.90;;;;;;;33.33;61.66;100563.19;5061623;28;69882;-46
2023/07/03 08:43:11;;;;;;;;;;;;;;;33.14;61.92;100561.75;5060048;28;67074;-46
2023/07/03 08:45:45;;;;;;;2.25;1.63;;;;;;;33.34;61.60;100570.25;5062821;28;69293;-46
2023/07/03 08:48:23;;;;;;;2.88;2.08;;;;;;;32.77;61.73;100466.22;5068710;28;66423;-49
2023/07/03 08:51:00;;;;;;;3.20;1.83;;;;;;;33.28;61.44;100541.34;5063092;28;70517;-47
2023/07/03 08:53:38;;;;;;;2.22;1.83;;;;;;;33.38;61.77;100565.19;5058540;28;66548;-47
2023/07/03 08:56:13;;;;;;;2.58;1.98;;;;;;;33.39;61.63;100545.06;5063068;28;69960;-47
2023/07/03 08:58:46;;;;;;;1.70;1.60;;;;;;;33.29;61.23;100540.28;5062618;28;65495;-48
2023/07/03 09:01:26;;;;;;;1.80;1.70;;;;;;;33.40;61.38;100557.59;5062491;28;69876;-48
2023/07/03 09:04:14;;;;;;;2.40;1.95;;;;;;;33.37;61.28;100561.63;5060760;28;65728;-46
2023/07/03 09:07:05;;;;;;;2.05;1.65;;;;;;;32.83;61.35;100473.38;5059424;28;70186;-46
2023/07/03 09:09:39;;;;;;;1.67;1.53;;;;;;;33.40;61.48;100556.75;5060602;28;66082;-49
2023/07/03 09:12:58;;;;;;;3.00;1.70;;;;;;;33.33;61.67;100562.38;5057015;28;69572;-47
2023/07/03 09:15:44;;;;;;;2.67;2.28;;;;;;;33.40;61.13;100565.75;5037722;28;66563;-47
2023/07/03 09:18:21;;;;;;;3.85;1.92;;;;;;;33.24;61.05;100551.06;5056454;28;69620;-46
2023/07/03 09:20:52;;;;;;;1.75;1.60;;;;;;;33.44;61.41;100568.81;5061852;28;66362;-47
2023/07/03 09:23:29;;;;;;;1.90;1.70;;;;;;;32.84;61.22;100467.69;5061544;28;69668;-46
2023/07/03 09:26:11;;;;;;;2.25;1.77;;;;;;;32.91;61.12;100481.97;5060076;28;66831;-45
2023/07/03 09:28:43;;;;;;;3.58;1.85;;;;;;;33.42;61.14;100566.31;5062107;28;70780;-46
2023/07/03 09:31:17;;;;;;;3.47;1.48;;;;;;;33.04;61.40;100509.91;5059568;28;66232;-46
2023/07/03 09:33:48;;;;;;;;;;;;;;;33.26;61.57;100570.66;5060189;28;69889;-47
2023/07/03 09:36:41;;;;;;;4.25;1.50;;;;;;;33.38;61.29;100578.78;5061281;28;66570;-45
2023/07/03 09:39:18;;;;;;;2.15;1.60;;;;;;;33.42;60.94;100576.38;5046439;28;70389;-47
2023/07/03 09:41:49;;;;;;;2.55;1.98;;;;;;;33.36;61.38;100570.03;5061420;28;66198;-47
2023/07/03 09:44:22;;;;;;;3.05;1.63;;;;;;;33.48;61.70;100608.84;5062021;28;71585;-46
2023/07/03 09:46:56;;;;;;;1.73;1.52;;;;;;;32.82;61.36;100501.59;5045094;28;66178;-47
2023/07/03 09:49:28;;;;;;;2.28;1.67;;;;;;;33.48;61.63;100613.47;5060389;28;69112;-46
2023/07/03 09:52:00;;;;;;;3.30;1.80;;;;;;;33.46;61.09;100615.59;5060126;28;65920;-45
2023/07/03 09:54:33;;;;;;;6.88;1.50;;;;;;;33.31;61.13;100608.81;5061585;28;70507;-47
2023/07/03 09:57:19;;;;;;;7.18;2.22;;;;;;;32.93;61.82;100561.34;5056840;28;65628;-46
2023/07/03 09:59:54;;;;;;;2.30;1.98;;;;;;;33.43;61.70;100637.84;5061571;28;70634;-48
2023/07/03 10:02:25;;;;;;;1.67;1.55;;;;;;;33.42;61.76;100647.91;5056811;28;66455;-46
2023/07/03 10:04:59;;;;;;;3.00;2.05;;;;;;;32.72;62.00;100532.13;5055364;28;70391;-47
2023/07/03 10:07:40;;;;;;;2.47;1.98;;;;;;;32.10;61.96;100436.91;5056700;28;66507;-46
2023/07/03 10:10:21;;;;;;;3.38;2.30;;;;;;;33.27;62.53;100645.72;5032683;28;69178;-47
2023/07/03 10:13:38;;;;;;;5.18;2.08;;;;;;;33.22;62.56;100669.25;5056431;28;64615;-45
2023/07/03 10:16:13;;;;;;;3.55;2.13;;;;;;;33.34;62.18;100684.44;5011442;28;69742;-46
2023/07/03 10:18:48;;;;;;;4.00;1.90;;;;;;;32.98;62.12;100630.41;5013339;28;66524;-51
2023/07/03 10:21:22;;;;;;;2.50;2.10;;;;;;;33.06;62.49;100665.41;5039366;28;70177;-46
2023/07/03 10:23:54;;;;;;;2.60;1.98;;;;;;;33.29;62.74;100713.44;5056702;28;66186;-47
2023/07/03 10:26:42;;;;;;;2.20;2.00;;;;;;;32.97;63.10;100672.25;5056999;28;69679;-45
2023/07/03 10:29:30;;;;;;;3.35;2.55;;;;;;;33.08;63.00;100680.41;5054480;28;67108;-46
2023/07/03 10:32:15;;;;;;;6.20;2.05;;;;;;;31.90;63.84;100554.72;5052829;28;69433;-44
2023/07/03 10:35:10;;;;;;;3.22;1.88;;;;;;;32.36;66.00;100680.66;5053027;28;66542;-44
2023/07/03 10:37:55;;;;;;;4.68;2.35;;;;;;;32.41;67.47;100710.63;5055510;28;69780;-45
2023/07/03 10:40:38;;;;;;;5.78;2.47;;;;;;;31.84;68.42;100626.16;5048525;28;66307;-45
2023/07/03 10:43:13;;;;;;;4.13;3.03;;;;;;;32.27;69.52;100723.59;5056736;28;70129;-46
2023/07/03 10:45:47;;;;;;;3.38;3.10;;;;;;;32.20;70.18;100694.91;5057875;28;66611;-46
2023/07/03 10:48:24;;;;;;;5.93;3.63;;;;;;;32.11;68.58;100631.19;5038445;28;70000;-45
2023/07/03 10:51:17;;;;;;;5.25;3.67;;;;;;;32.62;68.35;100692.94;5058665;28;65165;-45
2023/07/03 10:54:10;;;;;;;4.22;3.53;;;;;;;32.35;68.21;100654.56;5058356;28;69817;-45
2023/07/03 10:56:47;;;;;;;10.88;4.25;;;;;;;32.91;67.22;100717.50;5060306;28;65708;-45
2023/07/03 10:59:28;;;;;;;5.68;3.80;;;;;;;32.88;66.95;100707.94;5060478;28;69872;-45
2023/07/03 11:02:09;;;;;;;7.30;4.50;;;;;;;32.95;66.90;100724.09;5058994;28;66573;-46
2023/07/03 11:05:01;;;;;;;7.72;5.00;;;;;;;32.98;66.63;100717.38;5054677;28;69529;-46
2023/07/03 11:07:47;;;;;;;13.90;4.93;;;;;;;32.94;66.76;100723.28;5058740;28;66456;-46
2023/07/03 11:10:32;;;;;;;10.75;4.75;;;;;;;32.97;66.67;100729.31;5058830;28;69558;-45
2023/07/03 11:13:24;;;;;;;4.90;4.50;;;;;;;32.81;66.99;100712.66;5058980;28;67171;-45
2023/07/03 11:16:15;;;;;;;7.55;5.13;;;;;;;32.85;67.09;100741.03;5059743;28;69970;-45
2023/07/03 11:19:07;;;;;;;5.43;4.93;;;;;;;32.89;67.12;100744.09;5054429;28;66160;-44
2023/07/03 11:22:17;;;;;;;6.88;5.28;;;;;;;32.85;67.18;100746.44;5065354;28;70828;-46
2023/07/03 11:25:07;;;;;;;6.40;5.00;;;;;;;32.85;66.77;100749.16;5057397;28;66672;-45
2023/07/03 11:27:50;;;;;;;5.25;4.47;;;;;;;32.90;66.51;100751.16;5058952;28;69352;-46
2023/07/03 11:30:25;;;;;;;5.35;3.67;;;;;;;32.93;66.04;100751.53;5057256;28;66324;-45
2023/07/03 11:32:59;;;;;;;6.07;3.63;;;;;;;32.79;66.41;100725.69;5061954;28;70753;-46
2023/07/03 11:35:31;;;;;;;4.40;4.10;;;;;;;32.83;66.43;100743.13;5058737;28;66525;-46
2023/07/03 11:38:09;;;;;;;3.72;3.42;;;;;;;32.42;66.40;100679.69;5059071;28;69733;-45
2023/07/03 11:40:55;;;;;;;4.03;3.72;;;;;;;32.85;66.94;100751.88;5055860;28;66017;-46
2023/07/03 11:43:36;;;;;;;4.72;4.00;;;;;;;31.87;66.45;100598.56;5061663;28;70273;-45
2023/07/03 11:46:17;;;;;;;4.95;4.43;;;;;;;32.88;66.63;100756.84;5060883;28;66426;-46
2023/07/03 11:48:55;;;;;;;6.20;4.40;;;;;;;32.29;66.74;100671.81;5060049;28;69192;-45
2023/07/03 11:51:37;;;;;;;8.95;3.97;;;;;;;31.77;69.57;100666.94;5035891;28;66117;-45
2023/07/03 11:54:19;;;;;;;3.90;3.60;;;;;;;32.04;71.60;100762.38;5059674;28;69583;-46
2023/07/03 11:57:06;;;;;;;4.70;4.10;;;;;;;31.96;72.97;100781.69;5058722;28;66337;-44
2023/07/03 11:59:42;;;;;;;7.90;4.13;;;;;;;31.49;73.63;100691.97;5056369;28;69889;-45